createdAt,value
2018-03-28T00:02:12.762Z,83.02
2018-03-28T00:04:41.676Z,82.73
2018-03-28T00:07:10.749Z,82.86
2018-03-28T00:09:39.891Z,82.59
2018-03-28T00:12:08.798Z,82.59
2018-03-28T00:14:37.684Z,82.64
2018-03-28T00:17:06.840Z,82.45
2018-03-28T00:19:36.057Z,82.11
2018-03-28T00:22:05.442Z,82.20
2018-03-28T00:24:34.334Z,82.43
2018-03-28T00:27:03.952Z,82.51
2018-03-28T00:29:32.819Z,82.37
2018-03-28T00:32:03.422Z,82.68
2018-03-28T00:34:32.956Z,82.80
2018-03-28T00:37:01.926Z,82.73
2018-03-28T00:39:30.770Z,82.65
2018-03-28T00:41:59.945Z,82.47
2018-03-28T00:44:28.776Z,82.51
2018-03-28T00:46:57.732Z,82.41
2018-03-28T00:49:26.942Z,82.40
2018-03-28T00:51:55.852Z,82.18
2018-03-28T00:54:24.771Z,82.15
2018-03-28T00:56:54.119Z,82.45
2018-03-28T00:59:23.080Z,82.44
2018-03-28T01:01:51.966Z,82.41
2018-03-28T01:04:21.482Z,82.17
2018-03-28T01:06:50.363Z,82.22
2018-03-28T01:09:19.260Z,82.22
2018-03-28T01:11:48.657Z,82.38
2018-03-28T01:14:17.659Z,82.35
2018-03-28T01:16:46.515Z,82.38
2018-03-28T01:19:16.856Z,82.32
2018-03-28T01:21:46.162Z,82.27
2018-03-28T01:24:15.184Z,82.28
2018-03-28T01:26:44.071Z,82.29
2018-03-28T01:29:13.130Z,82.39
2018-03-28T01:31:42.471Z,82.29
2018-03-28T01:34:11.380Z,82.18
2018-03-28T01:36:40.336Z,82.05
2018-03-28T01:39:09.295Z,82.22
2018-03-28T01:41:38.223Z,82.12
2018-03-28T01:44:07.517Z,82.25
2018-03-28T01:46:36.429Z,82.34
2018-03-28T01:49:05.364Z,82.12
2018-03-28T01:51:34.337Z,82.06
2018-03-28T01:54:03.788Z,82.06
2018-03-28T01:56:32.715Z,82.01
2018-03-28T01:59:02.843Z,81.82
2018-03-28T02:01:31.770Z,81.79
2018-03-28T02:04:00.747Z,81.69
2018-03-28T02:06:29.909Z,81.46
2018-03-28T02:08:58.924Z,81.38
2018-03-28T02:11:27.892Z,81.18
2018-03-28T02:13:57.359Z,81.27
2018-03-28T02:16:26.264Z,81.18
2018-03-28T02:18:55.175Z,81.36
2018-03-28T02:21:24.376Z,81.54
2018-03-28T02:23:53.275Z,82.02
2018-03-28T02:26:22.170Z,81.89
2018-03-28T02:28:51.463Z,82.06
2018-03-28T02:31:20.356Z,82.26
2018-03-28T02:33:49.350Z,82.25
2018-03-28T02:36:18.781Z,82.10
2018-03-28T02:38:47.694Z,82.33
2018-03-28T02:41:16.734Z,82.00
2018-03-28T02:43:47.035Z,81.93
2018-03-28T02:46:15.969Z,82.14
2018-03-28T02:48:44.923Z,82.22
2018-03-28T02:51:14.813Z,82.06
2018-03-28T02:53:43.726Z,81.95
2018-03-28T02:56:12.591Z,82.01
2018-03-28T02:58:41.486Z,82.15
2018-03-28T03:01:10.516Z,82.14
2018-03-28T03:03:39.495Z,82.17
2018-03-28T03:06:08.896Z,82.35
2018-03-28T03:08:37.820Z,82.18
2018-03-28T03:11:06.749Z,82.18
2018-03-28T03:13:36.234Z,82.34
2018-03-28T03:16:05.702Z,82.01
2018-03-28T03:18:34.665Z,81.73
2018-03-28T03:21:04.013Z,81.91
2018-03-28T03:23:32.943Z,81.81
2018-03-28T03:26:03.598Z,81.75
2018-03-28T03:28:32.771Z,81.69
2018-03-28T03:31:01.807Z,81.62
2018-03-28T03:33:30.714Z,81.49
2018-03-28T03:36:00.618Z,81.58
2018-03-28T03:38:29.560Z,81.28
2018-03-28T03:40:58.444Z,81.47
2018-03-28T03:43:27.660Z,81.48
2018-03-28T03:45:57.111Z,81.39
2018-03-28T03:48:26.028Z,81.46
2018-03-28T03:50:55.261Z,81.74
2018-03-28T03:53:24.176Z,81.94
2018-03-28T03:55:53.129Z,81.78
2018-03-28T03:58:22.431Z,81.78
2018-03-28T04:00:51.419Z,82.08
2018-03-28T04:03:20.287Z,81.83
2018-03-28T04:05:50.558Z,82.00
2018-03-28T04:08:19.551Z,81.87
2018-03-28T04:10:48.498Z,81.90
2018-03-28T04:13:17.822Z,81.85
2018-03-28T04:15:46.717Z,81.87
2018-03-28T04:18:15.888Z,81.97
2018-03-28T04:20:45.229Z,81.88
2018-03-28T04:23:14.220Z,81.86
2018-03-28T04:25:43.148Z,81.85
2018-03-28T04:28:12.646Z,81.58
2018-03-28T04:30:41.580Z,81.59
2018-03-28T04:33:10.511Z,81.77
2018-03-28T04:35:39.947Z,81.57
2018-03-28T04:38:08.887Z,81.57
2018-03-28T04:40:37.812Z,81.48
2018-03-28T04:43:07.178Z,81.56
2018-03-28T04:45:36.122Z,81.46
2018-03-28T04:48:05.629Z,80.93
2018-03-28T04:50:34.928Z,78.90
2018-03-28T04:53:04.263Z,76.72
2018-03-28T04:55:33.371Z,75.99
2018-03-28T04:58:03.388Z,75.65
2018-03-28T05:00:32.782Z,75.44
2018-03-28T05:03:02.190Z,74.12
2018-03-28T05:05:31.468Z,73.82
2018-03-28T05:08:00.381Z,73.27
2018-03-28T05:10:29.292Z,72.94
2018-03-28T05:12:58.683Z,73.07
2018-03-28T05:15:27.639Z,72.38
2018-03-28T05:17:56.540Z,72.18
2018-03-28T05:20:25.845Z,71.41
2018-03-28T05:22:54.750Z,71.39
2018-03-28T05:25:23.677Z,71.63
2018-03-28T05:27:52.926Z,72.11
2018-03-28T05:30:21.848Z,71.87
2018-03-28T05:32:50.772Z,72.20
2018-03-28T05:35:20.062Z,72.51
2018-03-28T05:37:48.984Z,72.09
2018-03-28T05:40:17.914Z,72.36
2018-03-28T05:42:47.274Z,71.36
2018-03-28T05:45:17.005Z,70.83
2018-03-28T05:47:45.924Z,71.09
2018-03-28T05:50:15.392Z,71.35
2018-03-28T05:52:44.272Z,70.87
2018-03-28T05:55:13.139Z,71.15
2018-03-28T05:57:42.434Z,70.45
2018-03-28T06:00:11.376Z,70.22
2018-03-28T06:02:40.306Z,70.24
2018-03-28T06:05:09.632Z,70.19
2018-03-28T06:07:38.835Z,69.63
2018-03-28T06:10:07.768Z,69.09
2018-03-28T06:12:38.068Z,68.02
2018-03-28T06:15:07.010Z,67.98
2018-03-28T06:17:35.919Z,68.11
2018-03-28T06:20:06.761Z,68.11
2018-03-28T06:22:35.654Z,67.95
2018-03-28T06:25:04.587Z,68.13
2018-03-28T06:27:33.516Z,68.34
2018-03-28T06:30:04.311Z,68.16
2018-03-28T06:34:03.127Z,67.81
2018-03-28T06:36:32.062Z,66.41
2018-03-28T06:39:00.997Z,66.89
2018-03-28T06:41:30.632Z,66.35
2018-03-28T06:43:59.584Z,66.06
2018-03-28T06:46:28.513Z,65.73
2018-03-28T06:48:57.813Z,65.58
2018-03-28T06:51:26.733Z,65.30
2018-03-28T06:53:55.638Z,65.24
2018-03-28T06:56:24.971Z,64.58
2018-03-28T06:58:53.870Z,64.16
2018-03-28T07:01:22.988Z,63.52
2018-03-28T07:03:52.231Z,62.91
2018-03-28T07:06:21.848Z,62.19
2018-03-28T07:08:50.865Z,62.45
2018-03-28T07:11:20.288Z,61.88
2018-03-28T07:13:49.210Z,61.99
2018-03-28T07:16:18.832Z,61.92
2018-03-28T07:18:47.726Z,62.12
2018-03-28T07:21:16.807Z,62.07
2018-03-28T07:23:46.154Z,61.31
2018-03-28T07:26:15.241Z,61.44
2018-03-28T07:28:44.181Z,61.05
2018-03-28T07:31:13.471Z,61.17
2018-03-28T07:33:42.439Z,60.91
2018-03-28T07:36:11.377Z,60.65
2018-03-28T07:38:40.646Z,60.49
2018-03-28T07:41:09.613Z,60.52
2018-03-28T07:43:38.581Z,60.47
2018-03-28T07:46:08.815Z,60.05
2018-03-28T07:48:37.806Z,59.14
2018-03-28T07:51:06.728Z,58.95
2018-03-28T07:53:36.038Z,58.94
2018-03-28T07:56:07.039Z,58.73
2018-03-28T07:58:35.992Z,58.64
2018-03-28T08:01:05.005Z,58.62
2018-03-28T08:03:33.897Z,58.36
2018-03-28T08:06:04.464Z,58.14
2018-03-28T08:08:33.486Z,58.04
2018-03-28T08:11:03.371Z,58.15
2018-03-28T08:13:32.913Z,58.23
2018-03-28T08:16:03.728Z,56.97
2018-03-28T08:18:33.169Z,57.20
2018-03-28T08:21:02.412Z,57.18
2018-03-28T08:23:31.326Z,55.99
2018-03-28T08:26:00.623Z,56.35
2018-03-28T08:28:29.642Z,56.61
2018-03-28T08:30:58.592Z,56.51
2018-03-28T08:33:27.813Z,56.83
2018-03-28T08:35:56.728Z,56.36
2018-03-28T08:38:25.687Z,56.88
2018-03-28T08:40:55.019Z,56.88
2018-03-28T08:43:23.999Z,56.76
2018-03-28T08:45:53.112Z,56.79
2018-03-28T08:48:22.355Z,57.01
2018-03-28T08:50:51.347Z,57.17
2018-03-28T08:53:20.270Z,57.90
2018-03-28T08:55:49.473Z,57.98
2018-03-28T08:58:18.486Z,58.08
2018-03-28T09:00:47.436Z,58.50
2018-03-28T09:03:16.585Z,58.76
2018-03-28T09:05:45.594Z,59.01
2018-03-28T09:08:14.923Z,59.33
2018-03-28T09:10:43.969Z,59.00
2018-03-28T09:13:12.873Z,59.11
2018-03-28T09:15:42.185Z,59.20
2018-03-28T09:18:11.127Z,59.32
2018-03-28T09:20:40.081Z,59.13
2018-03-28T09:23:09.292Z,59.20
2018-03-28T09:25:38.205Z,59.05
2018-03-28T09:28:07.116Z,58.82
2018-03-28T09:30:36.334Z,58.59
2018-03-28T09:33:05.382Z,58.77
2018-03-28T09:35:35.553Z,58.69
2018-03-28T09:38:05.683Z,58.12
2018-03-28T09:40:34.596Z,57.75
2018-03-28T09:43:03.624Z,57.31
2018-03-28T09:45:32.876Z,56.68
2018-03-28T09:48:02.033Z,56.95
2018-03-28T09:50:30.980Z,56.41
2018-03-28T09:52:59.911Z,55.91
2018-03-28T09:55:28.836Z,55.21
2018-03-28T09:57:57.786Z,53.96
2018-03-28T10:00:28.396Z,53.93
2018-03-28T10:03:01.628Z,52.70
2018-03-28T10:05:34.649Z,50.63
2018-03-28T10:08:05.014Z,50.11
2018-03-28T10:10:34.213Z,48.90
2018-03-28T10:13:04.210Z,48.00
2018-03-28T10:15:33.202Z,48.26
2018-03-28T10:18:02.822Z,48.04
2018-03-28T10:20:32.038Z,48.09
2018-03-28T10:23:00.932Z,47.35
2018-03-28T10:25:29.875Z,46.55
2018-03-28T10:27:59.043Z,47.40
2018-03-28T10:30:28.039Z,48.00
2018-03-28T10:32:56.992Z,48.41
2018-03-28T10:35:25.933Z,48.82
2018-03-28T10:37:54.877Z,49.06
2018-03-28T10:40:25.199Z,49.26
2018-03-28T10:42:54.094Z,49.63
2018-03-28T10:45:23.059Z,49.42
2018-03-28T10:47:51.981Z,48.40
2018-03-28T10:50:20.985Z,47.62
2018-03-28T10:52:50.499Z,47.52
2018-03-28T10:55:19.446Z,47.04
2018-03-28T10:57:48.400Z,47.43
2018-03-28T11:00:18.255Z,47.27
2018-03-28T11:02:47.236Z,47.12
2018-03-28T11:05:19.327Z,47.25
2018-03-28T11:07:51.570Z,47.68
2018-03-28T11:10:21.815Z,46.58
2018-03-28T11:12:51.850Z,46.04
2018-03-28T11:15:21.046Z,44.54
2018-03-28T11:17:52.940Z,42.85
2018-03-28T11:20:25.195Z,41.28
2018-03-28T11:22:54.934Z,41.48
2018-03-28T11:25:26.195Z,41.03
2018-03-28T11:30:18.238Z,41.64
2018-03-28T11:32:48.032Z,40.70
2018-03-28T11:35:17.265Z,41.05
2018-03-28T11:37:46.717Z,40.23
2018-03-28T11:40:18.714Z,39.29
2018-03-28T11:42:48.938Z,39.12
2018-03-28T11:45:18.784Z,39.10
2018-03-28T11:47:48.132Z,38.57
2018-03-28T11:50:17.240Z,39.96
2018-03-28T11:52:46.194Z,39.84
2018-03-28T11:55:15.227Z,39.04
2018-03-28T11:57:44.159Z,39.99
2018-03-28T12:00:13.229Z,41.42
2018-03-28T12:02:42.658Z,42.38
2018-03-28T12:05:11.597Z,43.16
2018-03-28T12:07:40.522Z,43.99
2018-03-28T12:10:09.552Z,44.51
2018-03-28T12:12:38.647Z,44.88
2018-03-28T12:15:07.855Z,45.36
2018-03-28T12:17:37.085Z,45.68
2018-03-28T12:20:07.276Z,46.21
2018-03-28T12:22:36.777Z,47.22
2018-03-28T12:25:05.764Z,48.15
2018-03-28T12:27:37.617Z,48.65
2018-03-28T12:30:07.975Z,49.11
2018-03-28T12:32:36.904Z,50.38
2018-03-28T12:35:05.898Z,52.94
2018-03-28T12:37:35.050Z,55.35
2018-03-28T12:40:04.993Z,56.09
2018-03-28T12:42:33.904Z,56.06
2018-03-28T12:45:03.723Z,57.30
2018-03-28T12:47:32.661Z,58.22
2018-03-28T12:50:03.418Z,59.65
2018-03-28T12:52:32.272Z,60.31
2018-03-28T12:55:01.378Z,60.96
2018-03-28T12:57:30.703Z,61.52
2018-03-28T12:59:59.683Z,62.76
2018-03-28T13:02:28.760Z,61.84
2018-03-28T13:04:58.001Z,62.29
2018-03-28T13:07:27.008Z,62.67
2018-03-28T13:09:56.030Z,63.66
2018-03-28T13:12:25.414Z,63.57
2018-03-28T13:14:54.362Z,64.19
2018-03-28T13:17:23.347Z,65.01
2018-03-28T13:19:52.548Z,65.65
2018-03-28T13:22:22.004Z,66.64
2018-03-28T13:24:50.948Z,66.59
2018-03-28T13:27:20.206Z,67.46
2018-03-28T13:29:49.146Z,68.00
2018-03-28T13:32:18.150Z,68.03
2018-03-28T13:34:47.111Z,69.06
2018-03-28T13:37:16.219Z,69.51
2018-03-28T13:39:46.111Z,69.31
2018-03-28T13:42:15.167Z,69.19
2018-03-28T13:44:44.156Z,70.34
2018-03-28T13:47:13.449Z,70.51
2018-03-28T13:49:42.767Z,71.01
2018-03-28T13:52:11.682Z,71.26
2018-03-28T13:54:40.927Z,71.19
2018-03-28T13:57:09.877Z,71.94
2018-03-28T13:59:38.824Z,71.92
2018-03-28T14:02:08.058Z,72.39
2018-03-28T14:04:36.988Z,72.34
2018-03-28T14:07:06.044Z,71.64
2018-03-28T14:09:35.294Z,71.73
2018-03-28T14:12:05.437Z,71.79
2018-03-28T14:14:34.368Z,72.37
2018-03-28T14:17:03.342Z,72.01
2018-03-28T14:19:32.197Z,71.93
2018-03-28T14:22:03.047Z,71.67
2018-03-28T14:24:31.963Z,71.95
2018-03-28T14:27:00.827Z,72.41
2018-03-28T14:29:30.030Z,72.40
2018-03-28T14:31:58.982Z,72.76
2018-03-28T14:34:28.001Z,73.00
2018-03-28T14:36:57.205Z,72.60
2018-03-28T14:39:26.113Z,73.02
2018-03-28T14:41:55.055Z,73.97
2018-03-28T14:44:24.246Z,73.48
2018-03-28T14:46:53.168Z,74.09
2018-03-28T14:49:22.113Z,74.72
2018-03-28T14:51:51.355Z,74.84
2018-03-28T14:54:20.583Z,73.69
2018-03-28T14:56:49.558Z,75.09
2018-03-28T14:59:18.491Z,75.39
2018-03-28T15:01:47.420Z,75.42
2018-03-28T15:04:16.755Z,76.12
2018-03-28T15:06:45.732Z,76.77
2018-03-28T15:09:14.737Z,76.34
2018-03-28T15:11:44.005Z,77.21
2018-03-28T15:14:12.919Z,77.30
2018-03-28T15:16:42.620Z,77.51
2018-03-28T15:19:12.149Z,78.53
2018-03-28T15:21:41.076Z,78.28
2018-03-28T15:24:10.112Z,78.96
2018-03-28T15:26:39.321Z,79.13
2018-03-28T15:29:08.209Z,79.74
2018-03-28T15:31:37.094Z,80.14
2018-03-28T15:34:06.253Z,80.49
2018-03-28T15:36:35.168Z,80.97
2018-03-28T15:39:05.896Z,81.43
2018-03-28T15:41:35.222Z,81.44
2018-03-28T15:44:05.058Z,82.12
2018-03-28T15:46:34.264Z,82.67
2018-03-28T15:49:03.184Z,83.03
2018-03-28T15:51:32.067Z,83.14
2018-03-28T15:54:03.369Z,83.19
2018-03-28T15:56:32.298Z,84.13
2018-03-28T15:59:01.481Z,84.67
2018-03-28T16:01:30.741Z,85.00
2018-03-28T16:03:59.678Z,85.32
2018-03-28T16:06:28.590Z,85.43
2018-03-28T16:08:57.784Z,83.93
2018-03-28T16:11:27.357Z,83.91
2018-03-28T16:13:57.115Z,83.19
2018-03-28T16:16:26.322Z,83.23
2018-03-28T16:18:55.271Z,83.39
2018-03-28T16:21:24.780Z,82.75
2018-03-28T16:23:53.881Z,82.68
2018-03-28T16:26:23.442Z,82.75
2018-03-28T16:28:52.707Z,82.20
2018-03-28T16:31:21.636Z,82.43
2018-03-28T16:33:50.566Z,82.34
2018-03-28T16:36:19.760Z,82.67
2018-03-28T16:38:48.699Z,82.28
2018-03-28T16:41:17.786Z,82.41
2018-03-28T16:43:46.995Z,82.82
2018-03-28T16:46:15.936Z,82.67
2018-03-28T16:48:44.930Z,82.83
2018-03-28T16:51:14.845Z,83.25
2018-03-28T16:53:43.779Z,83.05
2018-03-28T16:56:12.693Z,83.27
2018-03-28T16:58:41.613Z,82.65
2018-03-28T17:01:10.600Z,82.63
2018-03-28T17:03:39.581Z,82.50
2018-03-28T17:06:08.475Z,82.01
2018-03-28T17:08:37.390Z,81.96
2018-03-28T17:11:06.636Z,82.37
2018-03-28T17:13:35.581Z,82.15
2018-03-28T17:16:05.583Z,81.76
2018-03-28T17:18:34.798Z,81.77
2018-03-28T17:21:04.135Z,81.46
2018-03-28T17:23:33.039Z,81.84
2018-03-28T17:26:02.823Z,81.97
2018-03-28T17:28:31.768Z,81.23
2018-03-28T17:31:00.684Z,80.79
2018-03-28T17:33:29.902Z,81.05
2018-03-28T17:35:58.792Z,81.17
2018-03-28T17:39:58.324Z,80.42
2018-03-28T17:42:27.204Z,80.60
2018-03-28T17:44:56.126Z,80.30
2018-03-28T17:47:25.429Z,80.47
2018-03-28T17:49:54.372Z,80.77
2018-03-28T17:52:23.272Z,80.79
2018-03-28T17:54:52.332Z,80.51
2018-03-28T17:57:21.304Z,80.98
2018-03-28T17:59:50.246Z,80.68
2018-03-28T18:02:19.170Z,81.17
2018-03-28T18:04:48.115Z,80.31
2018-03-28T18:07:17.424Z,80.00
2018-03-28T18:09:46.354Z,80.14
2018-03-28T18:12:15.485Z,80.29
2018-03-28T18:14:44.892Z,79.84
2018-03-28T18:17:13.865Z,80.25
2018-03-28T18:19:42.850Z,80.17
2018-03-28T18:22:11.815Z,80.26
2018-03-28T18:24:41.087Z,80.67
2018-03-28T18:27:10.055Z,80.46
2018-03-28T18:29:39.223Z,80.91
2018-03-28T18:32:08.028Z,81.01
2018-03-28T18:34:36.839Z,80.99
2018-03-28T18:37:05.866Z,81.22
2018-03-28T18:39:34.840Z,81.36
2018-03-28T18:42:04.552Z,81.38
2018-03-28T18:44:33.474Z,81.16
2018-03-28T18:47:02.496Z,80.62
2018-03-28T18:49:33.012Z,78.93
2018-03-28T18:52:02.328Z,78.24
2018-03-28T18:54:31.258Z,78.15
2018-03-28T18:57:00.551Z,77.53
2018-03-28T18:59:29.451Z,77.95
2018-03-28T19:01:58.339Z,77.66
2018-03-28T19:04:27.540Z,77.56
2018-03-28T19:06:56.383Z,77.40
2018-03-28T19:09:25.748Z,77.99
2018-03-28T19:11:55.079Z,76.79
2018-03-28T19:14:24.004Z,76.97
2018-03-28T19:16:52.979Z,76.88
2018-03-28T19:19:22.160Z,77.17
2018-03-28T19:21:51.077Z,77.19
2018-03-28T19:24:19.994Z,77.40
2018-03-28T19:26:48.934Z,77.26
2018-03-28T19:29:17.846Z,77.20
2018-03-28T19:31:47.353Z,74.89
2018-03-28T19:34:17.023Z,73.63
2018-03-28T19:36:45.881Z,72.40
2018-03-28T19:39:15.163Z,73.06
2018-03-28T19:41:44.138Z,72.59
2018-03-28T19:44:13.017Z,72.28
2018-03-28T19:46:41.969Z,71.91
2018-03-28T19:49:10.891Z,71.07
2018-03-28T19:51:40.135Z,70.58
2018-03-28T19:54:09.168Z,70.98
2018-03-28T19:56:38.075Z,70.95
2018-03-28T19:59:07.092Z,71.09
2018-03-28T20:01:37.435Z,71.49
2018-03-28T20:04:06.384Z,71.37
2018-03-28T20:06:35.302Z,71.36
2018-03-28T20:09:05.959Z,70.56
2018-03-28T20:11:34.965Z,69.74
2018-03-28T20:14:05.467Z,69.87
2018-03-28T20:16:34.381Z,69.55
2018-03-28T20:19:03.828Z,69.10
2018-03-28T20:21:32.801Z,67.85
2018-03-28T20:24:03.465Z,68.83
2018-03-28T20:26:32.362Z,66.92
2018-03-28T20:29:02.001Z,67.78
2018-03-28T20:31:30.960Z,68.26
2018-03-28T20:34:00.131Z,68.06
2018-03-28T20:36:29.474Z,67.26
2018-03-28T20:38:58.424Z,64.87
2018-03-28T20:41:27.443Z,66.07
2018-03-28T20:43:56.901Z,66.05
2018-03-28T20:46:25.991Z,66.29
2018-03-28T20:48:55.134Z,65.81
2018-03-28T20:51:24.165Z,66.10
2018-03-28T20:53:53.067Z,65.59
2018-03-28T20:56:22.423Z,59.29
2018-03-28T20:58:51.681Z,57.84
2018-03-28T21:01:20.971Z,57.47
2018-03-28T21:03:50.273Z,57.46
2018-03-28T21:06:19.218Z,57.66
2018-03-28T21:08:48.175Z,57.42
2018-03-28T21:11:17.615Z,55.54
2018-03-28T21:13:46.503Z,54.86
2018-03-28T21:16:15.591Z,54.40
2018-03-28T21:18:44.900Z,54.30
2018-03-28T21:21:13.878Z,54.87
2018-03-28T21:23:42.784Z,55.33
2018-03-28T21:26:12.520Z,55.82
2018-03-28T21:28:41.421Z,56.51
2018-03-28T21:31:10.328Z,57.09
2018-03-28T21:33:39.252Z,57.81
2018-03-28T21:36:08.209Z,58.31
2018-03-28T21:38:37.458Z,58.78
2018-03-28T21:41:06.381Z,59.32
2018-03-28T21:43:35.326Z,59.55
2018-03-28T21:46:05.153Z,59.48
2018-03-28T21:48:34.157Z,59.90
2018-03-28T21:51:03.381Z,59.71
2018-03-28T21:53:32.604Z,59.90
2018-03-28T21:56:01.529Z,60.47
2018-03-28T21:58:30.448Z,60.63
2018-03-28T22:00:59.651Z,60.41
2018-03-28T22:03:28.655Z,60.36
2018-03-28T22:05:57.646Z,60.26
2018-03-28T22:08:27.000Z,60.60
2018-03-28T22:10:56.976Z,60.64
2018-03-28T22:13:26.728Z,60.92
2018-03-28T22:15:55.594Z,61.28
2018-03-28T22:18:24.644Z,61.27
2018-03-28T22:20:54.347Z,61.11
2018-03-28T22:23:23.336Z,60.97
2018-03-28T22:25:52.301Z,61.23
2018-03-28T22:28:22.007Z,61.21
2018-03-28T22:30:51.294Z,61.45
2018-03-28T22:33:20.613Z,61.76
2018-03-28T22:35:50.217Z,61.76
2018-03-28T22:38:19.189Z,62.21
2018-03-28T22:40:48.132Z,61.87
2018-03-28T22:43:18.232Z,61.98
2018-03-28T22:45:47.192Z,62.09
2018-03-28T22:48:16.134Z,62.61
2018-03-28T22:50:45.622Z,63.38
2018-03-28T22:53:14.533Z,63.50
2018-03-28T22:55:43.472Z,63.92
2018-03-28T22:58:12.410Z,64.25
2018-03-28T23:00:42.221Z,64.90
2018-03-28T23:03:11.432Z,65.42
2018-03-28T23:05:40.352Z,65.58
2018-03-28T23:08:09.249Z,65.56
2018-03-28T23:10:38.635Z,64.95
2018-03-28T23:13:07.589Z,64.40
2018-03-28T23:15:36.501Z,64.54
2018-03-28T23:18:07.368Z,62.22
2018-03-28T23:20:36.255Z,61.55
2018-03-28T23:23:05.144Z,60.41
2018-03-28T23:25:34.075Z,59.94
2018-03-28T23:28:04.183Z,60.37
2018-03-28T23:30:33.178Z,59.22
2018-03-28T23:33:02.368Z,59.69
2018-03-28T23:35:31.283Z,59.18
2018-03-28T23:38:01.365Z,59.12
2018-03-28T23:40:30.268Z,58.47
2018-03-28T23:42:59.208Z,57.61
2018-03-28T23:45:29.450Z,56.40
2018-03-28T23:47:58.370Z,56.08
2018-03-28T23:50:27.343Z,56.18
2018-03-28T23:52:56.794Z,55.07
2018-03-28T23:55:25.758Z,54.79
2018-03-28T23:57:54.724Z,55.00
